sensor_id;sensor_type;location;lat;lon;timestamp;P1;durP1;ratioP1;P2;durP2;ratioP2
73113;SDS011;61301;51.956;5.876;2023-04-01T00:00:30;7.13;;;1.60;;
73113;SDS011;61301;51.956;5.876;2023-04-01T00:02:57;5.65;;;1.80;;
73113;SDS011;61301;51.956;5.876;2023-04-01T00:05:23;3.67;;;1.42;;
73113;SDS011;61301;51.956;5.876;2023-04-01T00:07:52;4.43;;;1.77;;
73113;SDS011;61301;51.956;5.876;2023-04-01T00:10:18;4.72;;;1.25;;
73113;SDS011;61301;51.956;5.876;2023-04-01T00:12:44;3.72;;;1.20;;
73113;SDS011;61301;51.956;5.876;2023-04-01T00:15:11;4.53;;;1.40;;
73113;SDS011;61301;51.956;5.876;2023-04-01T00:17:37;5.47;;;2.17;;
73113;SDS011;61301;51.956;5.876;2023-04-01T00:20:04;3.38;;;1.67;;
73113;SDS011;61301;51.956;5.876;2023-04-01T00:22:31;4.80;;;1.85;;
73113;SDS011;61301;51.956;5.876;2023-04-01T00:24:57;4.00;;;2.00;;
73113;SDS011;61301;51.956;5.876;2023-04-01T00:27:23;3.17;;;1.30;;
73113;SDS011;61301;51.956;5.876;2023-04-01T00:29:49;4.65;;;1.88;;
73113;SDS011;61301;51.956;5.876;2023-04-01T00:32:15;4.53;;;2.25;;
73113;SDS011;61301;51.956;5.876;2023-04-01T00:34:41;6.45;;;2.20;;
73113;SDS011;61301;51.956;5.876;2023-04-01T00:37:07;4.32;;;2.20;;
73113;SDS011;61301;51.956;5.876;2023-04-01T00:39:34;3.42;;;2.25;;
73113;SDS011;61301;51.956;5.876;2023-04-01T00:42:01;6.28;;;2.80;;
73113;SDS011;61301;51.956;5.876;2023-04-01T00:44:32;5.07;;;2.63;;
73113;SDS011;61301;51.956;5.876;2023-04-01T00:47:00;6.25;;;3.10;;
73113;SDS011;61301;51.956;5.876;2023-04-01T00:49:27;6.95;;;3.35;;
73113;SDS011;61301;51.956;5.876;2023-04-01T00:51:57;4.53;;;3.22;;
73113;SDS011;61301;51.956;5.876;2023-04-01T00:54:26;4.70;;;3.25;;
73113;SDS011;61301;51.956;5.876;2023-04-01T00:56:55;5.65;;;3.83;;
73113;SDS011;61301;51.956;5.876;2023-04-01T00:59:26;6.85;;;4.70;;
73113;SDS011;61301;51.956;5.876;2023-04-01T01:01:57;6.85;;;4.60;;
73113;SDS011;61301;51.956;5.876;2023-04-01T01:04:25;7.22;;;5.43;;
73113;SDS011;61301;51.956;5.876;2023-04-01T01:07:01;6.72;;;5.32;;
73113;SDS011;61301;51.956;5.876;2023-04-01T01:09:41;9.68;;;6.25;;
73113;SDS011;61301;51.956;5.876;2023-04-01T01:18:15;7.32;;;6.57;;
73113;SDS011;61301;51.956;5.876;2023-04-01T01:29:06;8.40;;;6.95;;
73113;SDS011;61301;51.956;5.876;2023-04-01T01:37:28;10.98;;;9.43;;
73113;SDS011;61301;51.956;5.876;2023-04-01T01:39:58;11.55;;;9.18;;
73113;SDS011;61301;51.956;5.876;2023-04-01T01:42:33;11.93;;;10.32;;
73113;SDS011;61301;51.956;5.876;2023-04-01T01:45:04;11.02;;;9.90;;
73113;SDS011;61301;51.956;5.876;2023-04-01T01:47:31;10.32;;;9.32;;
73113;SDS011;61301;51.956;5.876;2023-04-01T01:50:02;11.00;;;9.90;;
73113;SDS011;61301;51.956;5.876;2023-04-01T01:52:30;11.60;;;10.00;;
73113;SDS011;61301;51.956;5.876;2023-04-01T01:54:57;10.80;;;9.73;;
73113;SDS011;61301;51.956;5.876;2023-04-01T01:57:28;11.82;;;8.60;;
73113;SDS011;61301;51.956;5.876;2023-04-01T02:00:07;9.25;;;7.68;;
73113;SDS011;61301;51.956;5.876;2023-04-01T02:02:44;9.38;;;7.82;;
73113;SDS011;61301;51.956;5.876;2023-04-01T02:05:16;9.43;;;8.27;;
73113;SDS011;61301;51.956;5.876;2023-04-01T02:07:46;9.60;;;7.43;;
73113;SDS011;61301;51.956;5.876;2023-04-01T02:10:17;9.40;;;7.38;;
73113;SDS011;61301;51.956;5.876;2023-04-01T02:12:47;8.93;;;6.47;;
73113;SDS011;61301;51.956;5.876;2023-04-01T02:15:14;13.20;;;6.75;;
73113;SDS011;61301;51.956;5.876;2023-04-01T02:17:43;12.35;;;5.35;;
73113;SDS011;61301;51.956;5.876;2023-04-01T02:20:16;9.98;;;5.22;;
73113;SDS011;61301;51.956;5.876;2023-04-01T02:22:51;11.93;;;5.10;;
73113;SDS011;61301;51.956;5.876;2023-04-01T02:25:26;11.75;;;4.72;;
73113;SDS011;61301;51.956;5.876;2023-04-01T02:27:56;13.85;;;5.47;;
73113;SDS011;61301;51.956;5.876;2023-04-01T02:30:24;21.00;;;5.82;;
73113;SDS011;61301;51.956;5.876;2023-04-01T02:32:53;17.52;;;6.30;;
73113;SDS011;61301;51.956;5.876;2023-04-01T02:35:20;12.73;;;5.22;;
73113;SDS011;61301;51.956;5.876;2023-04-01T02:37:48;15.13;;;5.90;;
73113;SDS011;61301;51.956;5.876;2023-04-01T02:40:15;9.88;;;5.18;;
73113;SDS011;61301;51.956;5.876;2023-04-01T02:42:42;9.77;;;5.30;;
73113;SDS011;61301;51.956;5.876;2023-04-01T02:45:09;9.10;;;4.75;;
73113;SDS011;61301;51.956;5.876;2023-04-01T02:47:36;11.07;;;5.97;;
73113;SDS011;61301;51.956;5.876;2023-04-01T02:50:02;12.73;;;5.75;;
73113;SDS011;61301;51.956;5.876;2023-04-01T02:52:29;12.00;;;5.53;;
73113;SDS011;61301;51.956;5.876;2023-04-01T02:54:59;13.77;;;6.70;;
73113;SDS011;61301;51.956;5.876;2023-04-01T02:57:25;7.28;;;4.18;;
73113;SDS011;61301;51.956;5.876;2023-04-01T02:59:51;7.22;;;4.50;;
73113;SDS011;61301;51.956;5.876;2023-04-01T03:02:17;5.07;;;4.15;;
73113;SDS011;61301;51.956;5.876;2023-04-01T03:04:44;5.65;;;4.22;;
73113;SDS011;61301;51.956;5.876;2023-04-01T03:07:10;5.97;;;4.38;;
73113;SDS011;61301;51.956;5.876;2023-04-01T03:09:36;4.75;;;4.25;;
73113;SDS011;61301;51.956;5.876;2023-04-01T03:12:03;4.93;;;4.47;;
73113;SDS011;61301;51.956;5.876;2023-04-01T03:14:32;6.45;;;3.85;;
73113;SDS011;61301;51.956;5.876;2023-04-01T03:17:01;7.65;;;3.70;;
73113;SDS011;61301;51.956;5.876;2023-04-01T03:19:30;5.65;;;4.47;;
73113;SDS011;61301;51.956;5.876;2023-04-01T03:21:58;6.40;;;4.25;;
73113;SDS011;61301;51.956;5.876;2023-04-01T03:24:24;6.63;;;4.13;;
73113;SDS011;61301;51.956;5.876;2023-04-01T03:26:50;6.47;;;4.57;;
73113;SDS011;61301;51.956;5.876;2023-04-01T03:29:16;4.93;;;4.43;;
73113;SDS011;61301;51.956;5.876;2023-04-01T03:31:45;5.85;;;4.47;;
73113;SDS011;61301;51.956;5.876;2023-04-01T03:34:11;4.95;;;4.45;;
73113;SDS011;61301;51.956;5.876;2023-04-01T03:36:37;5.25;;;4.28;;
73113;SDS011;61301;51.956;5.876;2023-04-01T03:39:04;6.45;;;3.92;;
73113;SDS011;61301;51.956;5.876;2023-04-01T03:41:38;5.30;;;4.50;;
73113;SDS011;61301;51.956;5.876;2023-04-01T03:44:04;4.55;;;4.10;;
73113;SDS011;61301;51.956;5.876;2023-04-01T03:46:31;8.23;;;4.30;;
73113;SDS011;61301;51.956;5.876;2023-04-01T03:48:57;4.57;;;4.07;;
73113;SDS011;61301;51.956;5.876;2023-04-01T03:51:24;4.10;;;3.70;;
73113;SDS011;61301;51.956;5.876;2023-04-01T03:53:51;4.72;;;4.30;;
73113;SDS011;61301;51.956;5.876;2023-04-01T03:56:18;5.28;;;4.78;;
73113;SDS011;61301;51.956;5.876;2023-04-01T03:58:44;5.13;;;4.72;;
73113;SDS011;61301;51.956;5.876;2023-04-01T04:01:15;7.00;;;4.38;;
73113;SDS011;61301;51.956;5.876;2023-04-01T04:03:42;5.45;;;4.68;;
73113;SDS011;61301;51.956;5.876;2023-04-01T04:06:11;4.75;;;4.35;;
73113;SDS011;61301;51.956;5.876;2023-04-01T04:08:38;7.15;;;5.20;;
73113;SDS011;61301;51.956;5.876;2023-04-01T04:11:04;7.30;;;5.65;;
73113;SDS011;61301;51.956;5.876;2023-04-01T04:13:30;5.68;;;5.15;;
73113;SDS011;61301;51.956;5.876;2023-04-01T04:16:00;7.45;;;5.97;;
73113;SDS011;61301;51.956;5.876;2023-04-01T04:18:27;6.82;;;5.68;;
73113;SDS011;61301;51.956;5.876;2023-04-01T04:20:53;8.43;;;6.68;;
73113;SDS011;61301;51.956;5.876;2023-04-01T04:23:19;9.65;;;7.68;;
73113;SDS011;61301;51.956;5.876;2023-04-01T04:25:56;9.88;;;6.65;;
73113;SDS011;61301;51.956;5.876;2023-04-01T04:28:25;8.27;;;7.07;;
73113;SDS011;61301;51.956;5.876;2023-04-01T04:30:53;7.82;;;7.03;;
73113;SDS011;61301;51.956;5.876;2023-04-01T04:33:20;10.23;;;7.50;;
73113;SDS011;61301;51.956;5.876;2023-04-01T04:35:47;8.35;;;7.00;;
73113;SDS011;61301;51.956;5.876;2023-04-01T04:38:13;9.77;;;8.20;;
73113;SDS011;61301;51.956;5.876;2023-04-01T04:40:40;10.73;;;7.78;;
73113;SDS011;61301;51.956;5.876;2023-04-01T04:43:10;9.07;;;7.85;;
73113;SDS011;61301;51.956;5.876;2023-04-01T04:45:37;7.63;;;6.80;;
73113;SDS011;61301;51.956;5.876;2023-04-01T04:48:03;10.95;;;8.57;;
73113;SDS011;61301;51.956;5.876;2023-04-01T04:50:30;10.15;;;8.88;;
73113;SDS011;61301;51.956;5.876;2023-04-01T04:52:59;10.05;;;7.75;;
73113;SDS011;61301;51.956;5.876;2023-04-01T04:55:26;10.18;;;7.55;;
73113;SDS011;61301;51.956;5.876;2023-04-01T04:58:12;11.38;;;7.88;;
73113;SDS011;61301;51.956;5.876;2023-04-01T05:00:41;9.23;;;8.27;;
73113;SDS011;61301;51.956;5.876;2023-04-01T05:03:16;10.10;;;7.72;;
73113;SDS011;61301;51.956;5.876;2023-04-01T05:05:47;12.57;;;8.48;;
73113;SDS011;61301;51.956;5.876;2023-04-01T05:08:15;11.68;;;9.75;;
73113;SDS011;61301;51.956;5.876;2023-04-01T05:10:41;9.90;;;8.77;;
73113;SDS011;61301;51.956;5.876;2023-04-01T05:13:07;10.48;;;8.93;;
73113;SDS011;61301;51.956;5.876;2023-04-01T05:15:33;13.02;;;9.88;;
73113;SDS011;61301;51.956;5.876;2023-04-01T05:18:01;9.73;;;8.30;;
73113;SDS011;61301;51.956;5.876;2023-04-01T05:20:27;9.98;;;8.65;;
73113;SDS011;61301;51.956;5.876;2023-04-01T05:22:56;11.07;;;9.55;;
73113;SDS011;61301;51.956;5.876;2023-04-01T05:25:24;11.00;;;9.45;;
73113;SDS011;61301;51.956;5.876;2023-04-01T05:27:50;11.02;;;9.68;;
73113;SDS011;61301;51.956;5.876;2023-04-01T05:30:17;10.07;;;8.70;;
73113;SDS011;61301;51.956;5.876;2023-04-01T05:33:05;9.00;;;7.97;;
73113;SDS011;61301;51.956;5.876;2023-04-01T05:35:31;10.52;;;9.50;;
73113;SDS011;61301;51.956;5.876;2023-04-01T05:37:58;8.60;;;7.70;;
73113;SDS011;61301;51.956;5.876;2023-04-01T05:40:24;7.20;;;6.40;;
73113;SDS011;61301;51.956;5.876;2023-04-01T05:42:50;8.75;;;7.10;;
73113;SDS011;61301;51.956;5.876;2023-04-01T05:45:17;8.48;;;7.57;;
73113;SDS011;61301;51.956;5.876;2023-04-01T05:48:03;7.95;;;6.80;;
73113;SDS011;61301;51.956;5.876;2023-04-01T05:50:35;9.30;;;8.25;;
73113;SDS011;61301;51.956;5.876;2023-04-01T05:53:02;6.97;;;5.63;;
73113;SDS011;61301;51.956;5.876;2023-04-01T05:55:28;10.57;;;8.50;;
73113;SDS011;61301;51.956;5.876;2023-04-01T05:57:54;7.65;;;6.13;;
73113;SDS011;61301;51.956;5.876;2023-04-01T06:00:21;7.55;;;5.90;;
73113;SDS011;61301;51.956;5.876;2023-04-01T06:02:48;7.88;;;6.38;;
73113;SDS011;61301;51.956;5.876;2023-04-01T06:05:15;9.18;;;7.68;;
73113;SDS011;61301;51.956;5.876;2023-04-01T06:07:45;6.93;;;6.22;;
73113;SDS011;61301;51.956;5.876;2023-04-01T06:10:16;6.82;;;5.75;;
73113;SDS011;61301;51.956;5.876;2023-04-01T06:42:21;5.18;;;3.63;;
73113;SDS011;61301;51.956;5.876;2023-04-01T06:55:16;3.45;;;2.72;;
73113;SDS011;61301;51.956;5.876;2023-04-01T06:58:10;5.07;;;3.50;;
73113;SDS011;61301;51.956;5.876;2023-04-01T07:00:58;2.85;;;2.47;;
73113;SDS011;61301;51.956;5.876;2023-04-01T07:03:35;2.50;;;2.30;;
73113;SDS011;61301;51.956;5.876;2023-04-01T07:06:09;3.47;;;2.50;;
73113;SDS011;61301;51.956;5.876;2023-04-01T07:08:49;3.85;;;3.15;;
73113;SDS011;61301;51.956;5.876;2023-04-01T07:11:22;2.38;;;1.92;;
73113;SDS011;61301;51.956;5.876;2023-04-01T07:16:41;1.80;;;1.40;;
73113;SDS011;61301;51.956;5.876;2023-04-01T07:22:03;1.90;;;1.70;;
73113;SDS011;61301;51.956;5.876;2023-04-01T07:24:54;1.55;;;1.38;;
73113;SDS011;61301;51.956;5.876;2023-04-01T07:27:23;1.40;;;1.10;;
73113;SDS011;61301;51.956;5.876;2023-04-01T07:29:50;1.65;;;1.38;;
73113;SDS011;61301;51.956;5.876;2023-04-01T07:34:50;1.98;;;1.35;;
73113;SDS011;61301;51.956;5.876;2023-04-01T07:38:00;1.88;;;1.67;;
73113;SDS011;61301;51.956;5.876;2023-04-01T07:40:49;1.42;;;1.10;;
73113;SDS011;61301;51.956;5.876;2023-04-01T07:46:29;2.72;;;1.92;;
73113;SDS011;61301;51.956;5.876;2023-04-01T07:49:17;1.45;;;1.25;;
73113;SDS011;61301;51.956;5.876;2023-04-01T07:54:51;1.55;;;1.00;;
73113;SDS011;61301;51.956;5.876;2023-04-01T07:57:35;2.33;;;1.13;;
73113;SDS011;61301;51.956;5.876;2023-04-01T08:11:16;1.58;;;1.23;;
73113;SDS011;61301;51.956;5.876;2023-04-01T08:14:41;1.92;;;1.65;;
73113;SDS011;61301;51.956;5.876;2023-04-01T08:20:18;2.00;;;1.10;;
73113;SDS011;61301;51.956;5.876;2023-04-01T08:22:59;1.08;;;0.90;;
73113;SDS011;61301;51.956;5.876;2023-04-01T08:25:48;1.15;;;0.63;;
73113;SDS011;61301;51.956;5.876;2023-04-01T08:28:41;0.60;;;0.52;;
73113;SDS011;61301;51.956;5.876;2023-04-01T08:31:31;1.42;;;0.60;;
73113;SDS011;61301;51.956;5.876;2023-04-01T08:35:02;1.23;;;0.50;;
73113;SDS011;61301;51.956;5.876;2023-04-01T08:37:01;1.13;;;0.80;;
73113;SDS011;61301;51.956;5.876;2023-04-01T08:39:35;0.50;;;0.50;;
73113;SDS011;61301;51.956;5.876;2023-04-01T08:56:41;2.20;;;1.30;;
73113;SDS011;61301;51.956;5.876;2023-04-01T09:07:59;1.67;;;1.23;;
73113;SDS011;61301;51.956;5.876;2023-04-01T09:10:57;1.13;;;1.00;;
73113;SDS011;61301;51.956;5.876;2023-04-01T09:19:41;2.13;;;1.08;;
73113;SDS011;61301;51.956;5.876;2023-04-01T09:22:50;1.10;;;1.00;;
73113;SDS011;61301;51.956;5.876;2023-04-01T09:28:28;1.30;;;1.17;;
73113;SDS011;61301;51.956;5.876;2023-04-01T09:42:32;2.08;;;1.77;;
73113;SDS011;61301;51.956;5.876;2023-04-01T09:48:00;2.97;;;1.70;;
73113;SDS011;61301;51.956;5.876;2023-04-01T09:50:37;2.33;;;1.45;;
73113;SDS011;61301;51.956;5.876;2023-04-01T09:53:47;2.05;;;1.15;;
73113;SDS011;61301;51.956;5.876;2023-04-01T09:59:30;2.08;;;1.45;;
73113;SDS011;61301;51.956;5.876;2023-04-01T10:05:25;1.40;;;1.30;;
73113;SDS011;61301;51.956;5.876;2023-04-01T10:11:07;1.90;;;1.70;;
73113;SDS011;61301;51.956;5.876;2023-04-01T10:16:51;3.63;;;2.90;;
73113;SDS011;61301;51.956;5.876;2023-04-01T10:48:28;7.40;;;5.80;;
73113;SDS011;61301;51.956;5.876;2023-04-01T10:51:25;6.03;;;5.18;;
73113;SDS011;61301;51.956;5.876;2023-04-01T11:04:36;5.25;;;4.75;;
73113;SDS011;61301;51.956;5.876;2023-04-01T11:29:52;5.35;;;4.05;;
73113;SDS011;61301;51.956;5.876;2023-04-01T11:50:38;1.67;;;1.40;;
73113;SDS011;61301;51.956;5.876;2023-04-01T11:56:11;0.93;;;0.93;;
73113;SDS011;61301;51.956;5.876;2023-04-01T11:58:50;1.63;;;0.98;;
73113;SDS011;61301;51.956;5.876;2023-04-01T12:01:25;1.20;;;1.00;;
73113;SDS011;61301;51.956;5.876;2023-04-01T12:09:43;0.98;;;0.50;;
73113;SDS011;61301;51.956;5.876;2023-04-01T12:12:29;0.82;;;0.52;;
73113;SDS011;61301;51.956;5.876;2023-04-01T12:26:05;0.82;;;0.40;;
73113;SDS011;61301;51.956;5.876;2023-04-01T12:31:13;0.40;;;0.40;;
73113;SDS011;61301;51.956;5.876;2023-04-01T12:36:19;0.70;;;0.70;;
73113;SDS011;61301;51.956;5.876;2023-04-01T12:41:53;0.90;;;0.90;;
73113;SDS011;61301;51.956;5.876;2023-04-01T12:44:31;1.10;;;0.88;;
73113;SDS011;61301;51.956;5.876;2023-04-01T12:49:55;0.80;;;0.80;;
73113;SDS011;61301;51.956;5.876;2023-04-01T12:55:23;1.02;;;0.93;;
73113;SDS011;61301;51.956;5.876;2023-04-01T13:06:44;1.88;;;1.65;;
73113;SDS011;61301;51.956;5.876;2023-04-01T13:25:59;1.70;;;1.60;;
73113;SDS011;61301;51.956;5.876;2023-04-01T13:31:55;1.70;;;1.60;;
73113;SDS011;61301;51.956;5.876;2023-04-01T13:46:13;1.70;;;1.40;;
73113;SDS011;61301;51.956;5.876;2023-04-01T13:49:07;1.20;;;1.10;;
73113;SDS011;61301;51.956;5.876;2023-04-01T13:57:23;1.13;;;0.93;;
73113;SDS011;61301;51.956;5.876;2023-04-01T14:00:25;0.88;;;0.63;;
73113;SDS011;61301;51.956;5.876;2023-04-01T14:08:51;0.40;;;0.40;;
73113;SDS011;61301;51.956;5.876;2023-04-01T14:17:01;0.35;;;0.30;;
73113;SDS011;61301;51.956;5.876;2023-04-01T14:22:35;0.30;;;0.30;;
73113;SDS011;61301;51.956;5.876;2023-04-01T14:25:18;0.50;;;0.50;;
73113;SDS011;61301;51.956;5.876;2023-04-01T14:36:33;0.30;;;0.30;;
73113;SDS011;61301;51.956;5.876;2023-04-01T14:42:30;0.10;;;0.10;;
73113;SDS011;61301;51.956;5.876;2023-04-01T14:48:07;0.40;;;0.40;;
73113;SDS011;61301;51.956;5.876;2023-04-01T14:51:02;0.30;;;0.30;;
73113;SDS011;61301;51.956;5.876;2023-04-01T14:53:36;0.57;;;0.40;;
73113;SDS011;61301;51.956;5.876;2023-04-01T14:56:08;0.20;;;0.20;;
73113;SDS011;61301;51.956;5.876;2023-04-01T14:58:49;0.73;;;0.40;;
73113;SDS011;61301;51.956;5.876;2023-04-01T15:04:02;0.20;;;0.20;;
73113;SDS011;61301;51.956;5.876;2023-04-01T15:12:36;0.30;;;0.30;;
73113;SDS011;61301;51.956;5.876;2023-04-01T15:18:16;0.30;;;0.30;;
73113;SDS011;61301;51.956;5.876;2023-04-01T15:26:33;0.30;;;0.30;;
73113;SDS011;61301;51.956;5.876;2023-04-01T15:32:01;0.20;;;0.20;;
73113;SDS011;61301;51.956;5.876;2023-04-01T15:34:31;0.93;;;0.80;;
73113;SDS011;61301;51.956;5.876;2023-04-01T15:42:09;0.70;;;0.60;;
73113;SDS011;61301;51.956;5.876;2023-04-01T15:44:50;0.95;;;0.75;;
73113;SDS011;61301;51.956;5.876;2023-04-01T15:49:57;1.67;;;1.58;;
73113;SDS011;61301;51.956;5.876;2023-04-01T16:00:57;2.00;;;1.88;;
73113;SDS011;61301;51.956;5.876;2023-04-01T16:04:30;1.95;;;1.75;;
73113;SDS011;61301;51.956;5.876;2023-04-01T16:17:30;1.13;;;1.02;;
73113;SDS011;61301;51.956;5.876;2023-04-01T16:20:42;1.50;;;1.40;;
73113;SDS011;61301;51.956;5.876;2023-04-01T16:23:13;1.17;;;1.10;;
73113;SDS011;61301;51.956;5.876;2023-04-01T16:25:49;1.77;;;1.67;;
73113;SDS011;61301;51.956;5.876;2023-04-01T16:28:36;2.78;;;1.88;;
73113;SDS011;61301;51.956;5.876;2023-04-01T16:31:32;1.70;;;1.60;;
73113;SDS011;61301;51.956;5.876;2023-04-01T16:34:29;2.70;;;1.70;;
73113;SDS011;61301;51.956;5.876;2023-04-01T16:37:21;2.70;;;1.90;;
73113;SDS011;61301;51.956;5.876;2023-04-01T16:45:32;1.92;;;1.70;;
73113;SDS011;61301;51.956;5.876;2023-04-01T16:48:22;2.50;;;2.30;;
73113;SDS011;61301;51.956;5.876;2023-04-01T16:51:04;1.50;;;1.40;;
73113;SDS011;61301;51.956;5.876;2023-04-01T16:53:45;2.28;;;2.08;;
73113;SDS011;61301;51.956;5.876;2023-04-01T17:01:32;1.58;;;1.48;;
73113;SDS011;61301;51.956;5.876;2023-04-01T17:07:05;2.05;;;1.90;;
73113;SDS011;61301;51.956;5.876;2023-04-01T17:21:06;2.90;;;2.70;;
73113;SDS011;61301;51.956;5.876;2023-04-01T17:23:43;2.42;;;2.17;;
73113;SDS011;61301;51.956;5.876;2023-04-01T17:26:18;2.85;;;2.65;;
73113;SDS011;61301;51.956;5.876;2023-04-01T17:28:52;2.38;;;2.17;;
73113;SDS011;61301;51.956;5.876;2023-04-01T17:45:35;2.45;;;2.05;;
73113;SDS011;61301;51.956;5.876;2023-04-01T17:51:11;2.75;;;2.35;;
73113;SDS011;61301;51.956;5.876;2023-04-01T17:59:06;3.00;;;2.70;;
73113;SDS011;61301;51.956;5.876;2023-04-01T18:04:30;2.78;;;2.50;;
73113;SDS011;61301;51.956;5.876;2023-04-01T18:07:11;2.67;;;2.47;;
73113;SDS011;61301;51.956;5.876;2023-04-01T18:09:54;2.78;;;2.45;;
73113;SDS011;61301;51.956;5.876;2023-04-01T18:18:32;2.72;;;2.53;;
73113;SDS011;61301;51.956;5.876;2023-04-01T18:24:27;2.85;;;2.65;;
73113;SDS011;61301;51.956;5.876;2023-04-01T18:27:07;3.60;;;3.30;;
73113;SDS011;61301;51.956;5.876;2023-04-01T18:29:48;4.05;;;3.30;;
73113;SDS011;61301;51.956;5.876;2023-04-01T18:32:41;3.17;;;2.97;;
73113;SDS011;61301;51.956;5.876;2023-04-01T18:35:17;3.10;;;2.80;;
73113;SDS011;61301;51.956;5.876;2023-04-01T18:37:53;2.75;;;2.55;;
73113;SDS011;61301;51.956;5.876;2023-04-01T18:43:00;3.78;;;3.28;;
73113;SDS011;61301;51.956;5.876;2023-04-01T18:45:54;4.85;;;4.45;;
73113;SDS011;61301;51.956;5.876;2023-04-01T18:51:53;4.35;;;4.05;;
73113;SDS011;61301;51.956;5.876;2023-04-01T18:54:32;3.95;;;3.65;;
73113;SDS011;61301;51.956;5.876;2023-04-01T18:59:41;3.53;;;3.20;;
73113;SDS011;61301;51.956;5.876;2023-04-01T19:05:04;4.18;;;3.88;;
73113;SDS011;61301;51.956;5.876;2023-04-01T19:16:00;4.57;;;4.18;;
73113;SDS011;61301;51.956;5.876;2023-04-01T19:21:33;4.05;;;3.75;;
73113;SDS011;61301;51.956;5.876;2023-04-01T19:34:58;4.15;;;3.45;;
73113;SDS011;61301;51.956;5.876;2023-04-01T19:37:40;4.53;;;4.13;;
73113;SDS011;61301;51.956;5.876;2023-04-01T19:46:16;3.63;;;3.33;;
73113;SDS011;61301;51.956;5.876;2023-04-01T20:06:14;3.67;;;3.38;;
73113;SDS011;61301;51.956;5.876;2023-04-01T20:08:37;4.68;;;4.28;;
73113;SDS011;61301;51.956;5.876;2023-04-01T20:11:27;4.63;;;4.22;;
73113;SDS011;61301;51.956;5.876;2023-04-01T20:19:13;5.63;;;4.45;;
73113;SDS011;61301;51.956;5.876;2023-04-01T20:26:39;5.25;;;4.85;;
73113;SDS011;61301;51.956;5.876;2023-04-01T20:42:21;4.60;;;4.20;;
73113;SDS011;61301;51.956;5.876;2023-04-01T20:45:30;5.30;;;4.75;;
73113;SDS011;61301;51.956;5.876;2023-04-01T20:50:53;5.25;;;4.75;;
73113;SDS011;61301;51.956;5.876;2023-04-01T20:53:28;4.60;;;4.20;;
73113;SDS011;61301;51.956;5.876;2023-04-01T21:09:56;5.93;;;5.40;;
73113;SDS011;61301;51.956;5.876;2023-04-01T21:15:46;5.57;;;5.07;;
73113;SDS011;61301;51.956;5.876;2023-04-01T21:34:54;6.55;;;5.97;;
73113;SDS011;61301;51.956;5.876;2023-04-01T21:43:26;6.20;;;5.60;;
73113;SDS011;61301;51.956;5.876;2023-04-01T22:22:21;4.80;;;4.40;;
73113;SDS011;61301;51.956;5.876;2023-04-01T22:24:56;5.20;;;4.80;;
73113;SDS011;61301;51.956;5.876;2023-04-01T22:27:48;4.88;;;4.47;;
73113;SDS011;61301;51.956;5.876;2023-04-01T22:30:23;5.93;;;5.32;;
73113;SDS011;61301;51.956;5.876;2023-04-01T22:32:56;6.18;;;5.57;;
73113;SDS011;61301;51.956;5.876;2023-04-01T22:38:31;5.95;;;5.45;;
73113;SDS011;61301;51.956;5.876;2023-04-01T22:46:58;6.50;;;5.40;;
73113;SDS011;61301;51.956;5.876;2023-04-01T22:49:32;9.13;;;5.05;;
73113;SDS011;61301;51.956;5.876;2023-04-01T22:52:18;5.63;;;4.60;;
73113;SDS011;61301;51.956;5.876;2023-04-01T22:55:28;5.93;;;5.32;;
73113;SDS011;61301;51.956;5.876;2023-04-01T23:00:35;5.95;;;4.88;;
73113;SDS011;61301;51.956;5.876;2023-04-01T23:05:57;4.88;;;4.38;;
73113;SDS011;61301;51.956;5.876;2023-04-01T23:08:50;5.45;;;4.68;;
73113;SDS011;61301;51.956;5.876;2023-04-01T23:16:51;5.13;;;4.72;;
73113;SDS011;61301;51.956;5.876;2023-04-01T23:30:54;7.35;;;6.68;;
73113;SDS011;61301;51.956;5.876;2023-04-01T23:33:26;7.97;;;7.18;;
73113;SDS011;61301;51.956;5.876;2023-04-01T23:38:40;8.30;;;6.70;;
73113;SDS011;61301;51.956;5.876;2023-04-01T23:41:09;7.18;;;6.47;;
73113;SDS011;61301;51.956;5.876;2023-04-01T23:43:44;6.72;;;6.03;;
73113;SDS011;61301;51.956;5.876;2023-04-01T23:46:11;8.65;;;6.40;;
73113;SDS011;61301;51.956;5.876;2023-04-01T23:48:39;6.82;;;6.22;;
73113;SDS011;61301;51.956;5.876;2023-04-01T23:51:27;7.78;;;6.10;;
73113;SDS011;61301;51.956;5.876;2023-04-01T23:54:02;7.72;;;6.93;;
73113;SDS011;61301;51.956;5.876;2023-04-01T23:56:46;7.93;;;6.15;;
